sensor_id;sensor_type;location;lat;lon;timestamp;pressure;altitude;pressure_sealevel;temperature;humidity
27864;BME280;15980;51.092;13.916;2023-08-01T00:03:59;97543.72;;;18.70;79.42
27864;BME280;15980;51.092;13.916;2023-08-01T00:13:59;97523.16;;;18.64;81.03
27864;BME280;15980;51.092;13.916;2023-08-01T00:23:59;97489.25;;;18.49;84.46
27864;BME280;15980;51.092;13.916;2023-08-01T00:33:59;97467.34;;;18.32;84.61
27864;BME280;15980;51.092;13.916;2023-08-01T00:44:00;97451.88;;;18.31;82.21
27864;BME280;15980;51.092;13.916;2023-08-01T00:54:00;97438.22;;;18.40;81.76
27864;BME280;15980;51.092;13.916;2023-08-01T01:04:00;97422.41;;;18.37;82.65
27864;BME280;15980;51.092;13.916;2023-08-01T01:14:01;97411.06;;;18.28;83.37
27864;BME280;15980;51.092;13.916;2023-08-01T01:24:03;97380.28;;;18.18;82.79
27864;BME280;15980;51.092;13.916;2023-08-01T01:34:04;97373.16;;;18.17;83.86
27864;BME280;15980;51.092;13.916;2023-08-01T01:44:05;97370.00;;;18.15;83.28
27864;BME280;15980;51.092;13.916;2023-08-01T01:54:05;97353.84;;;18.34;81.28
27864;BME280;15980;51.092;13.916;2023-08-01T02:04:05;97348.03;;;18.48;79.14
27864;BME280;15980;51.092;13.916;2023-08-01T02:14:06;97339.41;;;18.42;80.18
27864;BME280;15980;51.092;13.916;2023-08-01T02:24:06;97345.69;;;18.00;85.74
27864;BME280;15980;51.092;13.916;2023-08-01T02:34:06;97332.84;;;17.59;91.72
27864;BME280;15980;51.092;13.916;2023-08-01T02:44:06;97314.06;;;17.43;94.83
27864;BME280;15980;51.092;13.916;2023-08-01T02:54:07;97287.66;;;17.35;96.43
27864;BME280;15980;51.092;13.916;2023-08-01T03:04:07;97281.38;;;17.31;96.99
27864;BME280;15980;51.092;13.916;2023-08-01T03:14:07;97264.38;;;17.29;97.92
27864;BME280;15980;51.092;13.916;2023-08-01T03:24:08;97238.56;;;17.32;98.35
27864;BME280;15980;51.092;13.916;2023-08-01T03:34:08;97224.78;;;17.28;97.70
27864;BME280;15980;51.092;13.916;2023-08-01T03:44:08;97205.13;;;17.19;98.34
27864;BME280;15980;51.092;13.916;2023-08-01T03:54:08;97196.88;;;17.16;99.74
27864;BME280;15980;51.092;13.916;2023-08-01T04:04:09;97189.63;;;17.22;99.91
27864;BME280;15980;51.092;13.916;2023-08-01T04:14:09;97170.47;;;17.31;99.74
27864;BME280;15980;51.092;13.916;2023-08-01T04:24:10;97157.97;;;17.46;98.92
27864;BME280;15980;51.092;13.916;2023-08-01T04:34:10;97139.03;;;17.41;98.72
27864;BME280;15980;51.092;13.916;2023-08-01T04:44:10;97127.94;;;17.41;98.40
27864;BME280;15980;51.092;13.916;2023-08-01T04:54:10;97103.91;;;17.78;96.58
27864;BME280;15980;51.092;13.916;2023-08-01T05:04:11;97094.09;;;17.93;95.56
27864;BME280;15980;51.092;13.916;2023-08-01T05:14:11;97085.22;;;17.82;95.90
27864;BME280;15980;51.092;13.916;2023-08-01T05:24:11;97055.03;;;17.84;97.41
27864;BME280;15980;51.092;13.916;2023-08-01T05:34:12;97067.47;;;17.76;97.30
27864;BME280;15980;51.092;13.916;2023-08-01T05:44:12;97061.31;;;17.88;98.66
27864;BME280;15980;51.092;13.916;2023-08-01T05:54:12;97045.28;;;17.96;98.87
27864;BME280;15980;51.092;13.916;2023-08-01T06:04:12;97031.31;;;17.99;99.01
27864;BME280;15980;51.092;13.916;2023-08-01T06:14:13;97028.22;;;18.13;98.94
27864;BME280;15980;51.092;13.916;2023-08-01T06:24:13;97012.56;;;18.39;97.78
27864;BME280;15980;51.092;13.916;2023-08-01T06:34:13;97007.06;;;18.72;97.05
27864;BME280;15980;51.092;13.916;2023-08-01T06:44:14;96995.47;;;18.57;96.65
27864;BME280;15980;51.092;13.916;2023-08-01T06:54:14;97005.38;;;18.42;97.45
27864;BME280;15980;51.092;13.916;2023-08-01T07:04:14;97015.81;;;18.18;99.89
27864;BME280;15980;51.092;13.916;2023-08-01T07:14:14;96995.03;;;18.42;99.36
27864;BME280;15980;51.092;13.916;2023-08-01T07:24:15;97000.34;;;18.86;97.62
27864;BME280;15980;51.092;13.916;2023-08-01T07:34:15;96992.88;;;19.28;95.94
27864;BME280;15980;51.092;13.916;2023-08-01T07:44:15;96997.00;;;20.57;88.42
27864;BME280;15980;51.092;13.916;2023-08-01T07:54:16;96992.72;;;20.91;86.09
27864;BME280;15980;51.092;13.916;2023-08-01T08:04:16;96996.31;;;20.28;85.50
27864;BME280;15980;51.092;13.916;2023-08-01T08:14:16;96989.09;;;20.56;83.29
27864;BME280;15980;51.092;13.916;2023-08-01T08:24:16;96991.91;;;20.43;82.38
27864;BME280;15980;51.092;13.916;2023-08-01T08:34:17;96974.38;;;21.02;79.54
27864;BME280;15980;51.092;13.916;2023-08-01T08:44:19;96979.50;;;21.04;79.75
27864;BME280;15980;51.092;13.916;2023-08-01T08:54:19;96985.63;;;21.68;76.54
27864;BME280;15980;51.092;13.916;2023-08-01T09:04:20;96992.75;;;21.69;75.02
27864;BME280;15980;51.092;13.916;2023-08-01T09:14:20;96958.91;;;21.67;75.43
27864;BME280;15980;51.092;13.916;2023-08-01T09:24:21;96950.09;;;22.31;69.44
27864;BME280;15980;51.092;13.916;2023-08-01T09:34:23;96948.66;;;22.75;68.07
27864;BME280;15980;51.092;13.916;2023-08-01T09:44:25;96922.25;;;22.58;66.73
27864;BME280;15980;51.092;13.916;2023-08-01T09:54:26;96929.25;;;22.13;68.30
27864;BME280;15980;51.092;13.916;2023-08-01T10:04:29;96929.41;;;22.77;65.52
27864;BME280;15980;51.092;13.916;2023-08-01T10:14:32;96928.94;;;22.70;65.25
27864;BME280;15980;51.092;13.916;2023-08-01T10:24:33;96943.53;;;22.74;64.93
27864;BME280;15980;51.092;13.916;2023-08-01T10:34:33;96944.53;;;22.31;63.81
27864;BME280;15980;51.092;13.916;2023-08-01T10:44:45;96969.53;;;22.93;61.36
27864;BME280;15980;51.092;13.916;2023-08-01T10:54:46;96977.47;;;23.67;58.64
27864;BME280;15980;51.092;13.916;2023-08-01T11:05:02;96969.69;;;23.53;55.07
27864;BME280;15980;51.092;13.916;2023-08-01T11:15:07;96957.91;;;23.58;56.96
27864;BME280;15980;51.092;13.916;2023-08-01T11:25:08;96960.88;;;24.06;53.76
27864;BME280;15980;51.092;13.916;2023-08-01T11:35:08;96956.31;;;24.18;56.84
27864;BME280;15980;51.092;13.916;2023-08-01T11:45:10;96970.13;;;24.72;55.24
27864;BME280;15980;51.092;13.916;2023-08-01T11:55:21;96991.13;;;24.77;53.56
27864;BME280;15980;51.092;13.916;2023-08-01T12:05:23;96986.69;;;24.19;55.38
27864;BME280;15980;51.092;13.916;2023-08-01T12:15:23;97000.34;;;23.29;58.71
27864;BME280;15980;51.092;13.916;2023-08-01T12:25:24;96971.31;;;21.66;68.62
27864;BME280;15980;51.092;13.916;2023-08-01T12:35:24;97024.28;;;19.41;79.72
27864;BME280;15980;51.092;13.916;2023-08-01T12:45:24;97026.56;;;18.00;92.73
27864;BME280;15980;51.092;13.916;2023-08-01T12:55:25;97073.53;;;17.71;100.00
27864;BME280;15980;51.092;13.916;2023-08-01T13:05:25;97085.22;;;18.18;100.00
27864;BME280;15980;51.092;13.916;2023-08-01T13:15:26;97082.84;;;18.89;97.75
27864;BME280;15980;51.092;13.916;2023-08-01T13:25:26;97064.47;;;21.12;86.89
27864;BME280;15980;51.092;13.916;2023-08-01T13:35:27;97062.06;;;21.49;83.59
27864;BME280;15980;51.092;13.916;2023-08-01T13:45:30;97062.06;;;21.92;80.95
27864;BME280;15980;51.092;13.916;2023-08-01T13:55:31;97076.19;;;21.33;81.01
27864;BME280;15980;51.092;13.916;2023-08-01T14:05:32;97081.59;;;22.36;78.39
27864;BME280;15980;51.092;13.916;2023-08-01T14:15:32;97087.63;;;22.04;76.72
27864;BME280;15980;51.092;13.916;2023-08-01T14:25:32;97089.03;;;21.86;74.95
27864;BME280;15980;51.092;13.916;2023-08-01T14:35:33;97082.53;;;21.89;72.43
27864;BME280;15980;51.092;13.916;2023-08-01T14:45:37;97094.16;;;22.10;71.74
27864;BME280;15980;51.092;13.916;2023-08-01T14:55:37;97105.34;;;22.10;70.89
27864;BME280;15980;51.092;13.916;2023-08-01T15:05:37;97098.56;;;22.42;69.81
27864;BME280;15980;51.092;13.916;2023-08-01T15:15:38;97132.56;;;22.40;69.59
27864;BME280;15980;51.092;13.916;2023-08-01T15:25:38;97148.69;;;22.14;69.74
27864;BME280;15980;51.092;13.916;2023-08-01T15:35:38;97136.66;;;22.05;70.90
27864;BME280;15980;51.092;13.916;2023-08-01T15:45:39;97147.41;;;21.59;70.27
27864;BME280;15980;51.092;13.916;2023-08-01T15:55:39;97160.34;;;21.31;69.69
27864;BME280;15980;51.092;13.916;2023-08-01T16:05:39;97163.81;;;22.04;66.84
27864;BME280;15980;51.092;13.916;2023-08-01T16:15:41;97156.06;;;22.08;65.26
27864;BME280;15980;51.092;13.916;2023-08-01T16:25:41;97151.44;;;21.92;65.45
27864;BME280;15980;51.092;13.916;2023-08-01T16:35:41;97160.94;;;22.92;61.36
27864;BME280;15980;51.092;13.916;2023-08-01T16:45:42;97189.59;;;22.08;59.71
27864;BME280;15980;51.092;13.916;2023-08-01T16:55:42;97212.94;;;20.78;59.35
27864;BME280;15980;51.092;13.916;2023-08-01T17:05:42;97226.75;;;20.69;59.47
27864;BME280;15980;51.092;13.916;2023-08-01T17:15:42;97225.34;;;20.90;59.40
27864;BME280;15980;51.092;13.916;2023-08-01T17:25:43;97227.13;;;20.96;58.69
27864;BME280;15980;51.092;13.916;2023-08-01T17:35:43;97230.72;;;21.48;57.61
27864;BME280;15980;51.092;13.916;2023-08-01T17:45:43;97229.16;;;21.47;56.81
27864;BME280;15980;51.092;13.916;2023-08-01T17:55:44;97243.16;;;20.80;58.84
27864;BME280;15980;51.092;13.916;2023-08-01T18:05:44;97253.59;;;20.34;60.75
27864;BME280;15980;51.092;13.916;2023-08-01T18:15:44;97265.25;;;20.29;62.57
27864;BME280;15980;51.092;13.916;2023-08-01T18:25:44;97276.94;;;19.95;64.06
27864;BME280;15980;51.092;13.916;2023-08-01T18:35:45;97282.06;;;19.64;65.93
27864;BME280;15980;51.092;13.916;2023-08-01T18:45:55;97307.56;;;19.42;66.57
27864;BME280;15980;51.092;13.916;2023-08-01T18:56:13;97320.25;;;19.07;67.69
27864;BME280;15980;51.092;13.916;2023-08-01T19:06:16;97334.84;;;18.75;68.71
27864;BME280;15980;51.092;13.916;2023-08-01T19:16:16;97339.31;;;18.69;68.33
27864;BME280;15980;51.092;13.916;2023-08-01T19:26:16;97344.38;;;18.51;69.49
27864;BME280;15980;51.092;13.916;2023-08-01T19:36:16;97371.84;;;18.26;71.31
27864;BME280;15980;51.092;13.916;2023-08-01T19:46:17;97381.53;;;18.14;72.41
27864;BME280;15980;51.092;13.916;2023-08-01T19:56:17;97398.44;;;17.73;74.23
27864;BME280;15980;51.092;13.916;2023-08-01T20:06:17;97414.63;;;17.47;76.20
27864;BME280;15980;51.092;13.916;2023-08-01T20:16:18;97419.53;;;17.36;76.08
27864;BME280;15980;51.092;13.916;2023-08-01T20:26:18;97431.38;;;17.40;76.46
27864;BME280;15980;51.092;13.916;2023-08-01T20:36:18;97436.00;;;17.16;77.07
27864;BME280;15980;51.092;13.916;2023-08-01T20:46:18;97449.97;;;17.09;76.47
27864;BME280;15980;51.092;13.916;2023-08-01T20:56:19;97454.09;;;16.94;76.85
27864;BME280;15980;51.092;13.916;2023-08-01T21:06:19;97457.94;;;16.62;78.73
27864;BME280;15980;51.092;13.916;2023-08-01T21:16:20;97455.28;;;16.52;78.57
27864;BME280;15980;51.092;13.916;2023-08-01T21:26:20;97458.44;;;16.50;80.40
27864;BME280;15980;51.092;13.916;2023-08-01T21:36:20;97465.56;;;16.51;82.66
27864;BME280;15980;51.092;13.916;2023-08-01T21:46:21;97458.34;;;16.61;84.68
27864;BME280;15980;51.092;13.916;2023-08-01T21:56:21;97463.88;;;16.61;85.39
27864;BME280;15980;51.092;13.916;2023-08-01T22:06:23;97467.41;;;16.65;85.51
27864;BME280;15980;51.092;13.916;2023-08-01T22:16:23;97479.78;;;16.53;86.03
27864;BME280;15980;51.092;13.916;2023-08-01T22:26:23;97481.41;;;16.51;85.36
27864;BME280;15980;51.092;13.916;2023-08-01T22:36:23;97484.16;;;16.51;84.63
27864;BME280;15980;51.092;13.916;2023-08-01T22:46:24;97487.25;;;16.60;83.87
27864;BME280;15980;51.092;13.916;2023-08-01T22:56:24;97484.13;;;16.54;84.46
27864;BME280;15980;51.092;13.916;2023-08-01T23:06:25;97494.50;;;16.40;85.86
27864;BME280;15980;51.092;13.916;2023-08-01T23:16:25;97501.78;;;16.19;86.67
27864;BME280;15980;51.092;13.916;2023-08-01T23:26:25;97499.41;;;16.21;86.53
27864;BME280;15980;51.092;13.916;2023-08-01T23:36:25;97509.28;;;16.22;85.51
27864;BME280;15980;51.092;13.916;2023-08-01T23:46:26;97508.53;;;16.18;85.16
27864;BME280;15980;51.092;13.916;2023-08-01T23:56:26;97511.00;;;15.98;86.35
